ROYN/OGN METAR and TAF weather

Enter ICAO airport designator
Station Type Date Time Source
ROYN METAR 2020/07/06 22:00 UTC NOAA

ROYN 062200Z AUTO 19016KT 9999 FEW016 SCT029 30/27 Q1009


Station Type Date Time Source
ROYN Decoded METAR 2020/07/06 22:00 UTC NOAA

Yonaguni Airport, Japan (ROYN) 24-28N 122-59E 19M
Jul 06, 2020 - 06:00 PM EDT / 2020.07.06 2200 UTC
Wind: from the S (190 degrees) at 18 MPH (16 KT):0
Visibility: greater than 7 mile(s):0
Sky conditions: partly cloudy
Temperature: 86 F (30 C)
Heat index: 101.8 F (38.8 C):1
Dew Point: 80 F (27 C)
Relative Humidity: 84%
Pressure (altimeter): 29.80 in. Hg (1009 hPa)
ob: ROYN 062200Z AUTO 19016KT 9999 FEW016 SCT029 30/27 Q1009
cycle: 22

Station Type Date Time Source
ROYN TAF UTC NOAA

Error!

Example: see airport list